Latest Weather Observations for Coldstream

IDV60901

Issued at 9:45 am EDT Sunday 26 October 2014 (issued every 10 minutes, with the page automatically refreshed every 10 minutes)

About weather observations | Map of Melbourne area stations | Latest observations for Melbourne area | Other Formats
Station Details ID: 086383 Name: COLDSTREAM Lat: -37.72 Lon: 145.41 Height: 83.0 m
Data from the previous 72 hours. | See also: Recent months at Coldstream
Date/Time
EDT
Tmp

°C
App
Tmp
°C
Dew
Point
°C
Rel
Hum
%
Delta-T

°C
Wind Press
QNH
hPa
Press
MSL
hPa
Rain
since
9 am
mm
Dir
 
Spd
km/h
Gust
km/h
Spd
kts
Gust
kts
26/09:30am 14.8 13.5 10.0 73 2.5 S 7 13 4 7 1014.4 1014.4 0.0
26/09:00am 14.4 13.1 10.0 75 2.3 S 7 13 4 7 1014.6 1014.6 0.0
26/08:30am 14.2 13.6 10.4 78 2.0 ESE 4 9 2 5 1013.8 1013.8 0.0
26/08:00am 13.8 13.6 10.6 81 1.7 SSW 2 7 1 4 1014.2 1014.2 0.0
26/07:30am 13.4 12.4 10.9 85 1.3 S 7 11 4 6 1013.7 1013.7 0.0
26/07:00am 13.0 11.5 10.5 85 1.3 SE 9 13 5 7 1013.2 1013.2 0.0
26/06:30am 12.9 12.1 11.0 88 1.0 ESE 6 9 3 5 1013.1 1013.1 0.0
26/06:00am 12.9 12.0 11.3 90 0.8 E 7 9 4 5 1013.1 1013.1 0.0
26/05:30am 13.1 13.3 11.7 91 0.7 E 2 7 1 4 1013.3 1013.3 0.0
26/05:00am 13.2 13.6 11.4 89 1.0 CALM 0 0 0 0 1013.1 1013.1 0.0
26/04:30am 13.2 13.6 11.3 88 1.0 CALM 0 0 0 0 1012.9 1012.9 0.0
26/04:00am 13.3 13.8 11.5 89 1.0 CALM 0 0 0 0 1012.8 1012.8 0.0
26/03:30am 13.3 13.7 11.4 88 1.0 CALM 0 0 0 0 1012.9 1012.9 0.0
26/03:00am 13.2 13.2 11.1 87 1.1 ESE 2 6 1 3 1013.0 1013.0 0.0
26/02:30am 13.4 13.7 10.9 85 1.3 CALM 0 0 0 0 1013.3 1013.3 0.0
26/02:00am 13.4 13.3 10.9 85 1.3 SSE 2 9 1 5 1013.9 1014.0 0.0
26/01:30am 13.6 12.5 10.8 83 1.5 SSE 7 11 4 6 1014.2 1014.2 0.0
26/01:00am 13.8 13.4 11.0 83 1.5 SSE 4 9 2 5 1014.7 1014.7 0.0
26/12:30am 13.9 14.4 11.6 86 1.2 CALM 0 0 0 0 1015.2 1015.2 0.0
26/12:00am 14.0 14.4 11.2 83 1.5 NW 0 2 0 1 1015.6 1015.6 0.0
 
Date/Time
EDT
Tmp

°C
App
Tmp
°C
Dew
Point
°C
Rel
Hum
%
Delta-T

°C
Wind Press
QNH
hPa
Press
MSL
hPa
Rain
since
9 am
mm
Dir
 
Spd
km/h
Gust
km/h
Spd
kts
Gust
kts
25/11:30pm 14.3 13.3 11.1 81 1.7 S 7 13 4 7 1015.7 1015.7 0.0
25/11:00pm 14.3 12.2 11.1 81 1.7 S 13 19 7 10 1015.8 1015.8 0.0
25/10:30pm 14.4 12.3 11.0 80 1.8 S 13 17 7 9 1015.9 1015.9 0.0
25/10:00pm 14.5 12.3 10.9 79 1.9 S 13 20 7 11 1015.9 1015.9 0.0
25/09:30pm 14.6 12.4 10.8 78 2.0 S 13 20 7 11 1015.9 1015.9 0.0
25/09:00pm 14.8 12.2 10.8 77 2.1 S 15 24 8 13 1015.8 1015.8 0.0
25/08:30pm 15.0 12.0 10.8 76 2.2 SSE 17 26 9 14 1015.4 1015.4 0.0
25/08:00pm 15.7 14.1 11.7 77 2.2 SSE 11 19 6 10 1015.1 1015.1 0.0
25/07:30pm 15.9 13.7 12.1 78 2.1 SSE 15 22 8 12 1015.0 1015.0 0.0
25/07:00pm 16.5 13.9 12.1 75 2.4 SSE 17 26 9 14 1014.5 1014.5 0.0
25/06:30pm 17.3 14.4 12.2 72 2.8 SSE 19 28 10 15 1014.3 1014.3 0.0
25/06:00pm 18.9 16.0 12.9 68 3.4 SE 20 30 11 16 1013.9 1014.0 0.0
25/05:30pm 19.5 17.8 13.7 69 3.3 SSE 15 26 8 14 1013.8 1013.8 0.0
25/05:00pm 20.4 18.3 13.6 65 3.9 SSE 17 26 9 14 1013.6 1013.6 0.0
25/04:30pm 21.3 20.7 14.5 65 4.0 SSE 11 17 6 9 1013.6 1013.6 0.0
25/04:00pm 21.8 22.1 14.4 63 4.3 WSW 6 11 3 6 1013.7 1013.7 0.0
25/03:30pm 21.2 21.7 12.9 59 4.7 WNW 2 11 1 6 1014.1 1014.1 0.0
25/03:00pm 20.5 20.3 13.0 62 4.3 E 6 9 3 5 1014.5 1014.5 0.0
25/02:30pm 20.2 19.7 12.7 62 4.2 WNW 7 11 4 6 1015.1 1015.1 0.0
25/02:00pm 19.3 19.0 12.8 66 3.7 W 6 11 3 6 1015.4 1015.4 0.0
25/01:30pm 18.9 18.0 12.6 67 3.5 SW 9 15 5 8 1015.7 1015.7 0.0
25/01:00pm 18.8 18.7 12.1 65 3.7 NE 4 7 2 4 1015.7 1015.7 0.0
25/12:30pm 18.7 18.5 13.1 70 3.2 NNW 6 9 3 5 1016.2 1016.2 0.0
25/12:00pm 17.8 17.3 12.7 72 2.8 SSW 7 13 4 7 1016.6 1016.6 0.0
25/11:30am 17.7 17.5 11.7 68 3.3 SSW 4 9 2 5 1017.1 1017.1 0.0
25/11:00am 17.1 16.1 10.9 67 3.3 SW 7 15 4 8 1017.3 1017.3 0.0
25/10:30am 16.8 15.9 11.5 71 2.9 S 7 11 4 6 1017.1 1017.1 0.0
25/10:00am 16.4 16.0 12.4 77 2.2 S 6 9 3 5 1017.3 1017.3 0.0
25/09:30am 15.7 14.8 12.5 81 1.8 SE 9 13 5 7 1017.5 1017.5 0.0
25/09:00am 15.2 14.3 12.5 84 1.5 SE 9 11 5 6 1017.5 1017.5 0.0
25/08:30am 15.1 15.2 12.8 86 1.3 ESE 4 7 2 4 1017.6 1017.6 0.0
25/08:00am 14.7 14.4 12.7 88 1.1 E 6 9 3 5 1017.5 1017.5 0.0
25/07:30am 14.2 14.9 12.2 88 1.1 CALM 0 0 0 0 1017.2 1017.2 0.0
25/07:00am 13.8 14.5 12.2 90 0.9 CALM 0 0 0 0 1017.1 1017.1 0.0
25/06:30am 13.7 14.0 12.1 90 0.9 SW 2 6 1 3 1017.0 1017.0 0.0
25/06:00am 13.8 13.1 12.0 89 1.0 S 7 11 4 6 1016.8 1016.8 0.0
25/05:30am 14.1 12.7 12.3 89 1.0 SW 11 15 6 8 1016.6 1016.6 0.0
25/05:00am 14.4 14.4 12.3 87 1.1 SSW 4 9 2 5 1016.4 1016.4 0.0
25/04:30am 14.5 14.9 12.5 88 1.1 SSW 2 7 1 4 1016.2 1016.2 0.0
25/04:00am 14.5 15.3 12.7 89 1.0 CALM 0 0 0 0 1016.2 1016.2 0.0
25/03:30am 14.5 14.1 12.9 90 0.9 SW 7 13 4 7 1016.2 1016.2 0.0
25/03:00am 14.5 14.1 13.0 91 0.8 SSW 7 13 4 7 1016.3 1016.3 0.0
25/02:30am 14.7 15.5 13.7 94 0.6 SSE 2 9 1 5 1016.2 1016.2 0.0
25/02:00am 15.0 15.0 13.7 92 0.7 S 6 9 3 5 1016.3 1016.3 0.0
25/01:30am 15.2 15.1 13.4 89 1.0 S 6 9 3 5 1016.2 1016.2 0.0
25/01:00am 15.1 14.5 13.6 91 0.8 ESE 9 15 5 8 1016.4 1016.4 0.0
25/12:30am 15.1 14.5 13.6 91 0.8 ESE 9 11 5 6 1016.5 1016.5 0.0
25/12:00am 15.3 15.2 13.8 91 0.8 SE 7 13 4 7 1016.4 1016.4 0.0
 
Date/Time
EDT
Tmp

°C
App
Tmp
°C
Dew
Point
°C
Rel
Hum
%
Delta-T

°C
Wind Press
QNH
hPa
Press
MSL
hPa
Rain
since
9 am
mm
Dir
 
Spd
km/h
Gust
km/h
Spd
kts
Gust
kts
24/11:30pm 15.4 14.9 13.9 91 0.8 SSE 9 13 5 7 1016.5 1016.5 0.0
24/11:00pm 15.5 14.3 13.9 90 0.9 SE 13 17 7 9 1016.3 1016.3 0.0
24/10:30pm 16.1 17.1 14.3 89 1.0 SSE 2 7 1 4 1016.0 1016.0 0.0
24/10:00pm 16.6 15.4 14.1 85 1.4 S 13 24 7 13 1015.4 1015.4 0.0
24/09:30pm 18.4 18.9 14.9 80 2.0 SSE 6 13 3 7 1014.4 1014.4 0.0
24/09:00pm 20.1 20.1 15.1 73 3.0 SSE 9 17 5 9 1013.3 1013.3 0.0
24/08:30pm 20.8 19.4 14.5 67 3.7 SE 15 20 8 11 1012.2 1012.2 0.0
24/08:00pm 21.1 20.9 13.0 60 4.6 SSW 6 11 3 6 1011.8 1011.8 0.0
24/07:30pm 23.0 22.2 12.9 53 5.8 SW 9 15 5 8 1011.0 1011.0 0.0
24/07:00pm 26.8 29.0 16.4 53 6.4 CALM 0 0 0 0 1010.5 1010.5 0.0
24/06:30pm 28.0 27.3 12.0 37 9.3 NW 7 13 4 7 1010.0 1010.0 0.0
24/06:00pm 28.9 26.6 9.1 29 11.0 NW 11 20 6 11 1009.9 1009.9 0.0
24/05:30pm 29.4 27.3 11.0 32 10.6 NW 13 20 7 11 1009.8 1009.8 0.0
24/05:00pm 29.8 27.0 9.9 29 11.3 NNW 15 26 8 14 1009.6 1009.6 0.0
24/04:30pm 29.8 26.0 9.9 29 11.3 NW 20 33 11 18 1009.6 1009.6 0.0
24/04:00pm 29.3 28.0 14.7 41 8.9 NNW 15 19 8 10 1009.8 1009.8 0.0
24/03:30pm 29.2 28.5 15.3 42 8.5 NNW 13 22 7 12 1009.9 1009.9 0.0
24/03:00pm 29.1 27.3 14.5 41 8.9 NW 17 32 9 17 1010.1 1010.1 0.0
24/02:30pm 28.6 27.3 15.8 45 7.9 NW 17 32 9 17 1010.4 1010.4 0.0
24/02:00pm 28.0 27.6 16.3 49 7.3 NNW 13 20 7 11 1010.6 1010.6 0.0
24/01:30pm 27.6 27.0 15.6 48 7.4 WNW 13 19 7 10 1010.8 1010.8 0.0
24/01:00pm 28.5 27.7 15.1 44 8.2 NW 13 24 7 13 1010.9 1010.9 0.0
24/12:30pm 27.5 26.4 14.2 44 8.0 WNW 13 22 7 12 1011.1 1011.1 0.0
24/12:00pm 27.1 26.4 16.4 52 6.6 WNW 15 19 8 10 1011.1 1011.1 0.0
24/11:30am 26.6 24.8 15.6 50 6.7 N 19 28 10 15 1011.3 1011.3 0.0
24/11:00am 23.9 25.1 16.9 65 4.3 WNW 6 9 3 5 1011.6 1011.6 0.0
24/10:30am 21.5 21.8 15.1 67 3.8 N 7 11 4 6 1011.8 1011.8 0.0
24/10:00am 19.9 19.7 14.7 72 3.0 NW 9 13 5 7 1011.6 1011.6 0.0
24/09:30am 16.5 17.5 14.3 87 1.3 N 2 6 1 3 1011.9 1011.9 0.0
24/09:00am 15.1 16.3 14.8 98 0.2 S 2 6 1 3 1012.3 1012.3 0.0
24/08:30am 13.8 14.6 13.6 99 0.1 S 2 6 1 3 1012.5 1012.5 0.0
24/08:00am 14.1 15.3 13.9 99 0.1 CALM 0 0 0 0 1012.5 1012.5 0.0
24/07:30am 13.7 14.8 13.5 99 0.1 CALM 0 6 0 3 1012.6 1012.6 0.0
24/07:00am 13.8 14.6 13.6 99 0.1 SW 2 6 1 3 1012.6 1012.6 0.0
24/06:30am 13.8 14.9 13.6 99 0.1 CALM 0 0 0 0 1012.4 1012.4 0.0
24/06:00am 13.9 15.1 13.7 99 0.1 CALM 0 0 0 0 1012.6 1012.6 0.0
24/05:30am 13.9 15.1 13.7 99 0.1 CALM 0 0 0 0 1012.7 1012.7 0.0
24/05:00am 13.9 15.1 13.7 99 0.1 CALM 0 0 0 0 1012.7 1012.7 0.0
24/04:30am 13.9 15.1 13.7 99 0.1 CALM 0 0 0 0 1012.6 1012.6 0.0
24/04:00am 13.9 15.1 13.7 99 0.1 CALM 0 0 0 0 1012.6 1012.6 0.0
24/03:30am 13.9 15.1 13.7 99 0.1 CALM 0 0 0 0 1012.7 1012.7 0.0
24/03:00am 13.8 14.2 13.6 99 0.1 SW 4 7 2 4 1013.2 1013.2 0.0
24/02:30am 11.2 11.5 11.0 99 0.1 CALM 0 0 0 0 1013.6 1013.6 0.0
24/02:00am 11.4 11.8 11.2 99 0.1 CALM 0 0 0 0 1013.9 1014.0 0.0
24/01:30am 11.6 12.0 11.3 98 0.2 CALM 0 0 0 0 1014.4 1014.4 0.0
24/01:00am 12.1 12.7 11.8 98 0.2 CALM 0 0 0 0 1014.7 1014.7 0.0
24/12:30am 11.8 12.3 11.5 98 0.2 CALM 0 0 0 0 1015.2 1015.2 0.0
24/12:00am 11.9 12.3 11.3 96 0.3 CALM 0 0 0 0 1015.3 1015.3 0.0
 
Date/Time
EDT
Tmp

°C
App
Tmp
°C
Dew
Point
°C
Rel
Hum
%
Delta-T

°C
Wind Press
QNH
hPa
Press
MSL
hPa
Rain
since
9 am
mm
Dir
 
Spd
km/h
Gust
km/h
Spd
kts
Gust
kts
23/11:30pm 13.3 14.2 12.8 97 0.3 CALM 0 0 0 0 1015.3 1015.3 0.0
23/11:00pm 13.5 14.3 12.4 93 0.6 CALM 0 0 0 0 1015.4 1015.4 0.0
23/10:30pm 14.8 15.7 12.8 88 1.1 CALM 0 0 0 0 1015.5 1015.5 0.0
23/10:00pm 15.6 16.6 13.3 86 1.3 CALM 0 7 0 4 1015.2 1015.2 0.0
23/09:30pm 16.2 16.9 13.5 84 1.5 S 2 9 1 5 1015.2 1015.2 0.0
23/09:00pm 16.8 17.7 13.9 83 1.6 S 2 9 1 5 1015.0 1015.0 0.0
23/08:30pm 17.7 17.6 14.0 79 2.1 S 7 13 4 7 1014.7 1014.7 0.0
23/08:00pm 18.5 17.8 14.4 77 2.4 SSE 11 20 6 11 1014.8 1014.8 0.0
23/07:30pm 19.3 18.5 15.0 76 2.5 SSE 13 19 7 10 1014.7 1014.7 0.0
23/07:00pm 20.9 21.0 15.4 71 3.3 SSE 9 15 5 8 1014.5 1014.5 0.0
23/06:30pm 21.8 21.7 15.9 69 3.6 S 11 17 6 9 1014.6 1014.6 0.0
23/06:00pm 22.7 22.8 16.5 68 3.8 S 11 17 6 9 1014.6 1014.6 0.0
23/05:30pm 23.4 23.8 16.4 64 4.3 SSE 9 17 5 9 1014.8 1014.8 0.0
23/05:00pm 23.9 24.3 16.4 63 4.6 SSW 9 13 5 7 1014.9 1014.9 0.0
23/04:30pm 23.3 23.4 15.6 62 4.6 SSW 9 15 5 8 1015.1 1015.1 0.0
23/04:00pm 23.4 24.7 17.2 68 3.8 SSW 6 11 3 6 1015.4 1015.4 0.0
23/03:30pm 23.0 23.7 17.0 69 3.7 SSE 9 17 5 9 1015.9 1015.9 0.0
23/03:00pm 22.3 23.2 16.1 68 3.8 SSE 6 11 3 6 1016.2 1016.2 0.0
23/02:30pm 21.9 22.1 15.7 68 3.7 SW 9 13 5 7 1016.7 1016.7 0.0
23/02:00pm 20.5 20.5 15.3 72 3.1 W 9 22 5 12 1017.2 1017.2 0.0
23/01:30pm 19.3 19.0 14.3 73 2.9 WSW 9 17 5 9 1018.0 1018.0 0.0
23/01:00pm 18.4 17.6 13.9 75 2.6 SSW 11 17 6 9 1018.3 1018.3 0.0
23/12:30pm 18.8 18.2 14.7 77 2.4 S 11 17 6 9 1018.5 1018.5 0.0
23/12:00pm 18.2 17.9 14.3 78 2.2 S 9 15 5 8 1018.9 1018.9 0.0
23/11:30am 17.5 17.6 13.8 79 2.1 SW 6 9 3 5 1019.5 1019.5 0.0
23/11:00am 16.9 16.4 13.8 82 1.8 S 9 15 5 8 1019.9 1019.9 0.0
23/10:30am 16.3 15.6 13.2 82 1.7 S 9 13 5 7 1020.1 1020.1 0.0
23/10:00am 15.8 14.9 13.6 87 1.2 S 11 17 6 9 1020.2 1020.2 0.0

Latest Capital City Observations: Canberra | Sydney | Melbourne | Brisbane | Adelaide | Perth | Hobart | Darwin

Other Formats:

Comma delimited format used in spreadsheet applications
http://www.bom.gov.au/fwo/IDV60901/IDV60901.94864.axf

JavaScript Object Notation format (JSON) in row-major order
http://www.bom.gov.au/fwo/IDV60901/IDV60901.94864.json